Campanya Meteocatpedra
Centenari de l'SMC: 100 anys mirant el cel

Dades de l'estació automàtica Pujalt

?
?

Resum diari

23:00 TU
Dades diàries de l'estació meteorològica
Temperatura mitjana 15.0 °C
Temperatura màxima 21.7 °C 14:35 TU
Temperatura mínima 10.3 °C 6:00 TU
Humitat relativa mitjana 66%
Precipitació acumulada 0.0 mm
Ratxa màxima del vent (10 m) 34.9 km/h - 233º 16:20 TU
Irradiació solar global 20.1 MJ/m2

El tram horari està expressat en Temps Universal (TU). Cal sumar una hora en horari d'hivern i dues en horari d'estiu per passar a l'hora oficial.

Pujalt

Metadades estació meteorològica
Municipi Pujalt
Comarca Anoia
Altitud 747 m
Data alta 06.04.2018
Estat actual Operativa
Dades de període
Període
TU
TM
°C
TX
°C
TN
°C
HRM
%
PPT
mm
VVM (10 m)
km/h
DVM (10 m)
graus
VVX (10 m)
km/h
RS
W/m2
00:00 - 00:30 13.3 13.8 12.8 75 0.0 6.8 234 13.3 0
00:30 - 01:00 12.8 13.1 12.5 78 0.0 7.6 226 11.9 0
01:00 - 01:30 12.5 12.7 12.4 79 0.0 9.4 227 17.3 0
01:30 - 02:00 12.7 12.8 12.3 79 0.0 11.2 230 16.9 0
02:00 - 02:30 12.2 12.3 11.9 81 0.0 10.8 233 16.9 0
02:30 - 03:00 11.8 11.9 11.6 83 0.0 9.0 236 16.2 0
03:00 - 03:30 11.6 11.7 11.4 84 0.0 9.7 241 19.4 0
03:30 - 04:00 11.3 11.4 11.2 85 0.0 10.4 247 21.2 0
04:00 - 04:30 11.0 11.2 10.8 86 0.0 10.1 241 19.1 0
04:30 - 05:00 10.8 10.9 10.8 87 0.0 11.9 244 21.6 0
05:00 - 05:30 10.7 10.8 10.4 87 0.0 13.0 239 23.0 0
05:30 - 06:00 10.3 10.4 10.3 89 0.0 11.9 236 20.5 6
06:00 - 06:30 10.4 10.5 10.3 89 0.0 10.1 249 19.1 28
06:30 - 07:00 10.5 10.7 10.5 89 0.0 10.1 253 19.1 63
07:00 - 07:30 11.4 11.9 10.7 86 0.0 11.5 247 25.6 190
07:30 - 08:00 12.7 13.2 12.0 80 0.0 11.9 251 25.2 358
08:00 - 08:30 13.6 14.2 13.2 76 0.0 11.5 271 23.4 432
08:30 - 09:00 14.4 14.7 13.7 72 0.0 10.4 261 25.2 500
09:00 - 09:30 14.4 15.1 14.2 72 0.0 12.6 266 25.9 422
09:30 - 10:00 15.6 16.5 14.7 68 0.0 14.0 259 30.2 690
10:00 - 10:30 16.8 17.2 16.2 63 0.0 13.0 261 29.5 766
10:30 - 11:00 17.5 18.2 16.9 61 0.0 15.1 256 29.9 781
11:00 - 11:30 18.3 19.2 17.6 57 0.0 15.1 257 30.6 801
11:30 - 12:00 18.6 19.3 18.2 54 0.0 15.1 271 31.3 809
12:00 - 12:30 19.5 19.9 18.8 52 0.0 13.0 253 28.4 796
12:30 - 13:00 19.8 20.3 19.2 49 0.0 12.6 249 28.4 707
13:00 - 13:30 20.5 21.2 19.8 46 0.0 12.6 233 28.1 741
13:30 - 14:00 21.2 21.5 20.8 44 0.0 16.2 222 30.2 735
14:00 - 14:30 21.0 21.6 20.5 45 0.0 14.4 230 29.2 627
14:30 - 15:00 21.2 21.7 20.5 42 0.0 13.7 244 27.4 516
15:00 - 15:30 21.0 21.6 20.1 39 0.0 17.6 225 33.1 431
15:30 - 16:00 20.9 21.3 20.6 34 0.0 19.1 231 32.0 373
16:00 - 16:30 20.4 20.9 19.8 31 0.0 16.2 243 34.9 238
16:30 - 17:00 19.7 19.9 19.1 31 0.0 17.6 243 34.6 166
17:00 - 17:30 18.5 19.0 17.9 35 0.0 16.9 254 32.0 60
17:30 - 18:00 17.4 17.8 17.0 41 0.0 10.8 259 24.8 6
18:00 - 18:30 16.6 16.9 16.2 46 0.0 10.1 259 22.0 0
18:30 - 19:00 15.9 16.2 15.6 49 0.0 7.6 259 15.5 0
19:00 - 19:30 15.2 15.6 14.6 51 0.0 7.2 256 15.8 0
19:30 - 20:00 13.9 14.5 13.6 56 0.0 4.0 177 7.9 0
20:00 - 20:30 13.7 13.9 13.5 56 0.0 6.5 114 10.8 0
20:30 - 21:00 13.5 13.8 13.0 67 0.0 8.6 125 13.7 0
21:00 - 21:30 13.0 13.3 12.6 76 0.0 7.2 159 14.0 0
21:30 - 22:00 12.4 12.6 12.3 83 0.0 7.2 129 12.6 0
22:00 - 22:30 12.1 12.3 12.0 91 0.0 7.6 136 12.2 0
22:30 - 23:00 11.8 12.0 11.7 94 0.0 6.1 149 9.4 0
23:00 - 23:30 11.7 11.7 11.6 95 0.0 4.7 175 8.3 0

Les dades en taronja només han passat un control de qualitat automàtic. Resta pendent la seva validació definitiva.